Time;durP1;ratioP1;P1;durP2;ratioP2;P2;SDS_P1;SDS_P2;PMS_P1;PMS_P2;Temp;Humidity;BMP_temperature;BMP_pressure;BME280_temperature;BME280_humidity;BME280_pressure;Samples;Min_cycle;Max_cycle;Signal;HPM_P1;HPM_P2
2022/07/01 00:00:14;;;;;;;11.55;10.32;;;;;;;17.33;100.00;101014.47;2104218;28;34669;-69
2022/07/01 00:01:15;;;;;;;12.45;10.75;;;;;;;17.33;100.00;101022.59;2103330;28;39223;-69
2022/07/01 00:02:19;;;;;;;17.17;12.20;;;;;;;17.32;100.00;101016.31;2096100;28;24262;-69
2022/07/01 00:03:21;;;;;;;12.00;10.80;;;;;;;17.28;100.00;101009.31;2096694;28;30296;-69
2022/07/01 00:04:26;;;;;;;11.32;10.15;;;;;;;17.29;100.00;101010.19;2096171;28;23531;-68
2022/07/01 00:05:48;;;;;;;11.13;10.13;;;;;;;17.27;100.00;101014.78;2095845;28;20072;-69
2022/07/01 00:06:51;;;;;;;11.30;10.02;;;;;;;17.25;100.00;101014.88;2098225;28;36745;-69
2022/07/01 00:07:55;;;;;;;12.07;10.90;;;;;;;17.25;100.00;101014.88;2103976;28;24307;-69
2022/07/01 00:08:56;;;;;;;12.52;11.23;;;;;;;17.24;100.00;101018.50;2095934;28;26811;-69
2022/07/01 00:09:58;;;;;;;12.85;11.55;;;;;;;17.22;100.00;101015.00;2095989;28;21881;-70
2022/07/01 00:11:00;;;;;;;13.00;11.73;;;;;;;17.18;100.00;101019.69;2095668;28;24494;-70
2022/07/01 00:12:05;;;;;;;12.63;11.43;;;;;;;17.17;100.00;101017.97;2096476;28;21409;-69
2022/07/01 00:13:07;;;;;;;13.93;11.98;;;;;;;17.17;100.00;101017.97;2096555;28;20091;-70
2022/07/01 00:14:11;;;;;;;12.07;10.88;;;;;;;17.16;100.00;101015.31;2096591;28;29339;-69
2022/07/01 00:15:15;;;;;;;12.90;11.15;;;;;;;17.15;100.00;101013.56;2103831;28;22461;-69
2022/07/01 00:16:17;;;;;;;13.32;11.93;;;;;;;17.12;100.00;101022.72;2095740;28;28853;-69
2022/07/01 00:17:21;;;;;;;12.75;11.55;;;;;;;17.11;100.00;101029.06;2095992;28;20048;-69
2022/07/01 00:18:25;;;;;;;13.43;12.07;;;;;;;17.08;100.00;101031.06;2088210;28;23880;-69
2022/07/01 00:19:30;;;;;;;12.52;11.23;;;;;;;17.05;100.00;101037.50;2095547;28;34313;-69
2022/07/01 00:20:32;;;;;;;12.20;11.00;;;;;;;16.98;100.00;101039.63;2102851;28;25784;-69
2022/07/01 00:21:34;;;;;;;13.30;11.93;;;;;;;17.00;100.00;101044.09;2096225;28;30482;-69
2022/07/01 00:22:36;;;;;;;13.32;11.93;;;;;;;16.96;100.00;101040.66;2095351;28;31258;-70
2022/07/01 00:23:38;;;;;;;15.75;12.05;;;;;;;16.93;100.00;101043.50;2095625;28;34001;-69
2022/07/01 00:24:40;;;;;;;12.55;11.35;;;;;;;16.88;100.00;101041.00;2096317;28;24560;-69
2022/07/01 00:25:42;;;;;;;12.93;11.68;;;;;;;16.85;100.00;101042.97;2096059;28;26619;-70
2022/07/01 00:26:44;;;;;;;14.32;12.15;;;;;;;16.86;100.00;101050.16;2096812;28;26330;-69
2022/07/01 00:27:48;;;;;;;15.90;12.20;;;;;;;16.87;100.00;101047.38;2096741;28;20076;-70
2022/07/01 00:28:53;;;;;;;15.85;13.35;;;;;;;16.85;100.00;101064.59;2096154;28;20051;-69
2022/07/01 00:29:54;;;;;;;14.65;12.90;;;;;;;16.80;100.00;101057.56;2095864;28;36154;-69
2022/07/01 00:30:56;;;;;;;14.77;13.27;;;;;;;16.80;100.00;101062.97;2096152;28;25969;-69
2022/07/01 00:31:58;;;;;;;17.45;13.35;;;;;;;16.80;100.00;101054.00;2096592;28;20878;-69
2022/07/01 00:33:00;;;;;;;14.32;13.00;;;;;;;16.77;100.00;101046.88;2096185;28;28519;-69
2022/07/01 00:34:02;;;;;;;14.50;13.00;;;;;;;16.78;100.00;101051.34;2095914;28;20037;-69
2022/07/01 00:35:04;;;;;;;15.07;13.13;;;;;;;16.78;100.00;101058.59;2095942;28;20059;-70
2022/07/01 00:36:06;;;;;;;15.55;13.95;;;;;;;16.79;100.00;101049.50;2096656;28;23063;-69
2022/07/01 00:37:08;;;;;;;16.10;13.20;;;;;;;16.77;100.00;101055.00;2097218;28;24880;-70
2022/07/01 00:38:10;;;;;;;17.05;13.35;;;;;;;16.74;100.00;101047.06;2096720;28;27892;-70
2022/07/01 00:39:14;;;;;;;16.52;12.93;;;;;;;16.74;100.00;101052.47;2097535;28;26565;-70
2022/07/01 00:40:17;;;;;;;13.90;12.13;;;;;;;16.67;100.00;101045.59;2097881;28;20033;-69
2022/07/01 00:41:18;;;;;;;13.80;11.55;;;;;;;16.69;100.00;101053.59;2097703;28;27347;-69
2022/07/01 00:42:20;;;;;;;16.20;11.70;;;;;;;16.61;100.00;101056.66;2098038;28;20041;-70
2022/07/01 00:43:24;;;;;;;18.65;9.48;;;;;;;16.55;100.00;101062.38;2097497;28;25585;-70
2022/07/01 00:44:39;;;;;;;17.85;9.10;;;;;;;16.40;100.00;101075.63;2097265;28;23752;-70
2022/07/01 00:45:48;;;;;;;16.75;7.82;;;;;;;16.35;100.00;101066.84;2097497;28;20037;-69
2022/07/01 00:46:51;;;;;;;16.60;7.65;;;;;;;16.36;100.00;101070.41;2097455;28;28748;-70
2022/07/01 00:47:53;;;;;;;17.25;7.80;;;;;;;16.28;100.00;101068.06;2089104;28;20099;-70
2022/07/01 00:48:58;;;;;;;15.52;7.95;;;;;;;16.23;100.00;101068.25;2089545;28;22492;-70
2022/07/01 00:50:00;;;;;;;21.13;8.07;;;;;;;16.22;100.00;101071.03;2097079;28;22003;-69
2022/07/01 00:51:02;;;;;;;16.55;8.30;;;;;;;16.17;100.00;101068.56;2096814;28;24102;-69
2022/07/01 00:52:09;;;;;;;18.75;7.85;;;;;;;16.16;100.00;101063.22;2097516;28;25309;-69
2022/07/01 00:53:15;;;;;;;21.00;7.80;;;;;;;16.14;100.00;101074.06;2098099;28;20106;-70
2022/07/01 00:54:19;;;;;;;19.92;7.90;;;;;;;16.14;100.00;101075.91;2097970;28;20993;-70
2022/07/01 00:55:20;;;;;;;18.80;9.02;;;;;;;16.12;100.00;101083.22;2097421;28;20037;-70
2022/07/01 00:56:23;;;;;;;18.83;8.55;;;;;;;16.11;100.00;101085.00;2097071;28;25822;-70
2022/07/01 00:57:30;;;;;;;17.13;8.30;;;;;;;16.10;100.00;101082.41;2097184;28;27877;-70
2022/07/01 00:58:32;;;;;;;18.75;8.10;;;;;;;16.09;100.00;101088.72;2096312;28;31675;-70
2022/07/01 00:59:35;;;;;;;18.95;8.23;;;;;;;16.07;100.00;101087.94;2097623;28;20933;-70
2022/07/01 01:00:39;;;;;;;21.88;8.35;;;;;;;15.96;100.00;101091.97;2096507;28;32545;-70
2022/07/01 01:01:42;;;;;;;14.88;7.53;;;;;;;15.95;100.00;101087.53;2096713;28;30852;-70
2022/07/01 01:02:46;;;;;;;20.48;7.32;;;;;;;15.86;100.00;101093.28;2096881;28;22144;-69
2022/07/01 01:03:49;;;;;;;15.55;7.03;;;;;;;15.89;100.00;101085.06;2096743;28;26787;-70
2022/07/01 01:04:51;;;;;;;20.73;7.07;;;;;;;15.80;100.00;101091.72;2097092;28;20044;-70
2022/07/01 01:05:54;;;;;;;14.35;6.55;;;;;;;15.80;100.00;101086.34;2096181;28;36936;-70
2022/07/01 01:06:57;;;;;;;17.02;6.82;;;;;;;15.78;100.00;101090.06;2096885;28;20445;-70
2022/07/01 01:08:00;;;;;;;19.45;6.45;;;;;;;15.76;100.00;101097.34;2098320;28;20049;-69
2022/07/01 01:09:03;;;;;;;19.45;6.60;;;;;;;15.65;100.00;101090.53;2097087;28;26377;-70
2022/07/01 01:10:05;;;;;;;13.85;5.85;;;;;;;15.66;100.00;101100.38;2097998;28;20938;-69
2022/07/01 01:11:13;;;;;;;22.00;6.10;;;;;;;15.61;100.00;101101.50;2096677;28;30690;-70
2022/07/01 01:12:15;;;;;;;15.00;5.88;;;;;;;15.57;100.00;101106.16;2097309;28;20623;-70
2022/07/01 01:13:17;;;;;;;23.33;7.32;;;;;;;15.51;100.00;101106.41;2089288;28;22005;-70
2022/07/01 01:14:19;;;;;;;18.67;8.13;;;;;;;15.47;100.00;101115.59;2097483;28;20838;-70
2022/07/01 01:15:21;;;;;;;19.58;7.25;;;;;;;15.46;100.00;101111.13;2097249;28;25151;-70
2022/07/01 01:16:23;;;;;;;25.35;7.88;;;;;;;15.45;100.00;101115.66;2097368;28;20146;-70
2022/07/01 01:17:26;;;;;;;21.27;7.88;;;;;;;15.42;100.00;101114.91;2096482;28;22636;-70
2022/07/01 01:18:28;;;;;;;18.90;6.63;;;;;;;15.41;100.00;101114.00;2097249;28;20099;-69
2022/07/01 01:19:33;;;;;;;20.55;6.13;;;;;;;15.38;100.00;101107.84;2117567;22;20153;-66
2022/07/01 01:20:36;;;;;;;23.13;5.57;;;;;;;15.37;100.00;101115.06;2100244;28;20341;-67
2022/07/01 01:21:38;;;;;;;19.00;5.78;;;;;;;15.37;100.00;101116.91;2096953;28;31325;-67
2022/07/01 01:22:42;;;;;;;20.65;5.85;;;;;;;15.32;100.00;101113.50;2097884;28;20991;-67
2022/07/01 01:23:45;;;;;;;22.52;5.95;;;;;;;15.30;100.00;101118.09;2097133;28;20157;-67
2022/07/01 01:24:47;;;;;;;20.42;5.20;;;;;;;15.30;100.00;101112.69;2096922;28;24413;-67
2022/07/01 01:25:49;;;;;;;20.85;5.35;;;;;;;15.30;100.00;101112.69;2097407;28;24056;-67
2022/07/01 01:26:51;;;;;;;19.88;5.43;;;;;;;15.28;100.00;101110.03;2097042;28;34091;-67
2022/07/01 01:27:53;;;;;;;25.83;5.70;;;;;;;15.26;100.00;101107.41;2096905;28;29862;-67
2022/07/01 01:28:55;;;;;;;19.13;5.72;;;;;;;15.23;100.00;101107.50;2097607;28;20045;-67
2022/07/01 01:29:57;;;;;;;18.77;5.13;;;;;;;15.21;100.00;101106.69;2096262;28;26588;-67
2022/07/01 01:31:01;;;;;;;17.95;5.22;;;;;;;15.20;100.00;101117.56;2097227;28;20600;-67
2022/07/01 01:32:06;;;;;;;20.63;5.25;;;;;;;15.16;100.00;101122.19;2097321;28;20784;-67
2022/07/01 01:33:08;;;;;;;15.30;5.03;;;;;;;15.15;100.00;101127.66;2097731;28;20167;-67
2022/07/01 01:34:11;;;;;;;17.73;5.75;;;;;;;15.14;100.00;101124.06;2096979;28;26672;-65
2022/07/01 01:35:13;;;;;;;20.60;5.43;;;;;;;15.12;100.00;101125.94;2088297;28;36447;-67
2022/07/01 01:36:15;;;;;;;18.08;5.82;;;;;;;15.11;100.00;101121.50;2088142;28;29110;-68
2022/07/01 01:37:19;;;;;;;20.67;6.13;;;;;;;15.10;100.00;101133.22;2096521;28;30928;-68
2022/07/01 01:38:23;;;;;;;24.25;5.85;;;;;;;15.07;100.00;101118.06;2096006;28;35783;-67
2022/07/01 01:39:25;;;;;;;17.20;5.40;;;;;;;15.06;100.00;101116.28;2096530;28;23215;-67
2022/07/01 01:40:26;;;;;;;19.30;5.45;;;;;;;15.06;100.00;101110.03;2097054;28;24846;-67
2022/07/01 01:41:28;;;;;;;15.27;4.88;;;;;;;15.08;100.00;101113.53;2096983;28;29903;-67
2022/07/01 01:42:32;;;;;;;21.42;5.95;;;;;;;15.06;100.00;101110.03;2097332;28;21655;-67
2022/07/01 01:43:34;;;;;;;18.63;5.07;;;;;;;15.05;100.00;101109.13;2097711;28;20075;-67
2022/07/01 01:44:38;;;;;;;22.52;5.43;;;;;;;15.04;100.00;101114.59;2096922;28;28850;-67
2022/07/01 01:45:41;;;;;;;18.13;5.68;;;;;;;15.02;100.00;101114.66;2097253;28;22207;-67
2022/07/01 01:46:43;;;;;;;16.77;5.32;;;;;;;15.03;100.00;101118.22;2096434;28;22407;-67
2022/07/01 01:47:47;;;;;;;19.58;5.43;;;;;;;14.98;100.00;101123.78;2097314;28;20045;-67
2022/07/01 01:48:49;;;;;;;20.42;5.38;;;;;;;14.95;100.00;101123.91;2096889;28;20077;-68
2022/07/01 01:49:51;;;;;;;17.38;4.93;;;;;;;14.96;100.00;101131.06;2088013;28;29187;-67
2022/07/01 01:50:53;;;;;;;18.20;4.82;;;;;;;14.96;100.00;101135.56;2099200;28;23166;-67
2022/07/01 01:51:59;;;;;;;25.88;5.53;;;;;;;14.95;100.00;101128.41;2097481;28;22463;-67
2022/07/01 01:53:01;;;;;;;18.25;4.78;;;;;;;14.94;100.00;101124.84;2087948;28;27279;-67
2022/07/01 01:54:03;;;;;;;20.98;4.70;;;;;;;14.90;100.00;101120.50;2088624;28;37572;-67
2022/07/01 01:55:06;;;;;;;15.25;4.75;;;;;;;14.94;100.00;101116.75;2096104;28;23978;-66
2022/07/01 01:56:10;;;;;;;18.45;4.82;;;;;;;14.92;100.00;101118.63;2088874;28;24354;-67
2022/07/01 01:57:13;;;;;;;14.73;4.93;;;;;;;14.91;100.00;101119.56;2087654;28;37724;-67
2022/07/01 01:58:15;;;;;;;14.38;4.70;;;;;;;14.87;100.00;101116.09;2096484;28;29608;-67
2022/07/01 01:59:17;;;;;;;12.95;4.30;;;;;;;14.88;100.00;101117.88;2104069;28;20109;-67
2022/07/01 02:00:19;;;;;;;13.80;4.60;;;;;;;14.85;100.00;101112.59;2097272;28;20552;-66
2022/07/01 02:01:21;;;;;;;16.80;4.93;;;;;;;14.87;100.00;101124.19;2096756;28;27887;-67
2022/07/01 02:02:23;;;;;;;19.27;4.47;;;;;;;14.88;100.00;101122.41;2096369;28;26996;-66
2022/07/01 02:03:25;;;;;;;20.73;4.95;;;;;;;14.86;100.00;101122.44;2096242;28;30908;-67
2022/07/01 02:04:26;;;;;;;16.75;4.07;;;;;;;14.87;100.00;101128.72;2096633;28;29185;-66
2022/07/01 02:05:30;;;;;;;9.73;3.33;;;;;;;14.86;100.00;101135.94;2096610;28;20041;-67
2022/07/01 02:06:31;;;;;;;20.88;3.60;;;;;;;14.87;100.00;101129.56;2095931;28;28151;-67
2022/07/01 02:07:35;;;;;;;15.23;3.75;;;;;;;14.85;100.00;101131.47;2096843;28;20071;-67
2022/07/01 02:08:39;;;;;;;11.50;3.78;;;;;;;14.87;100.00;101136.78;2096861;28;20045;-66
2022/07/01 02:09:41;;;;;;;15.55;3.90;;;;;;;14.89;100.00;101130.44;2088779;28;24951;-66
2022/07/01 02:10:43;;;;;;;14.35;2.80;;;;;;;14.85;100.00;101139.53;2096558;28;20041;-67
2022/07/01 02:11:45;;;;;;;10.82;2.70;;;;;;;14.86;100.00;101138.63;2096882;28;27270;-68
2022/07/01 02:12:49;;;;;;;10.73;2.65;;;;;;;14.85;100.00;101139.53;2096424;28;38067;-66
2022/07/01 02:13:51;;;;;;;11.73;2.65;;;;;;;14.86;100.00;101151.22;2087706;28;20045;-67
2022/07/01 02:14:53;;;;;;;9.57;2.55;;;;;;;14.86;100.00;101145.84;2087612;28;31720;-66
2022/07/01 02:15:55;;;;;;;20.92;2.33;;;;;;;14.85;100.00;101138.69;2096773;28;25986;-67
2022/07/01 02:16:57;;;;;;;11.57;2.13;;;;;;;14.85;100.00;101139.53;2096767;28;20179;-67
2022/07/01 02:17:59;;;;;;;7.80;1.42;;;;;;;14.83;100.00;101146.81;2097574;28;23903;-67
2022/07/01 02:19:00;;;;;;;11.43;1.77;;;;;;;14.82;100.00;101137.00;2096599;28;37032;-67
2022/07/01 02:20:04;;;;;;;12.15;1.55;;;;;;;14.81;100.00;101137.03;2096506;28;25346;-67
2022/07/01 02:21:05;;;;;;;8.10;1.73;;;;;;;14.83;100.00;101141.41;2096429;28;33092;-67
2022/07/01 02:22:11;;;;;;;4.60;1.33;;;;;;;14.83;100.00;101149.50;2097095;28;20044;-67
2022/07/01 02:23:13;;;;;;;8.23;1.80;;;;;;;14.82;100.00;101158.56;2096531;28;28911;-67
2022/07/01 02:24:15;;;;;;;7.35;1.55;;;;;;;14.81;100.00;101150.53;2096680;28;24580;-67
2022/07/01 02:25:18;;;;;;;8.98;1.52;;;;;;;14.81;100.00;101156.78;2096743;28;25924;-67
2022/07/01 02:26:21;;;;;;;9.65;1.10;;;;;;;14.82;100.00;101158.56;2096484;28;24655;-67
2022/07/01 02:27:23;;;;;;;7.40;1.33;;;;;;;14.82;100.00;101165.75;2096850;28;20833;-66
2022/07/01 02:28:25;;;;;;;8.00;1.10;;;;;;;14.83;100.00;101168.38;2096622;28;25001;-65
2022/07/01 02:29:27;;;;;;;9.88;1.75;;;;;;;14.82;100.00;101163.94;2096701;28;28215;-66
2022/07/01 02:30:30;;;;;;;8.38;1.13;;;;;;;14.82;100.00;101163.94;2097380;28;20130;-66
2022/07/01 02:31:32;;;;;;;6.18;1.00;;;;;;;14.83;100.00;101168.38;2096277;28;20041;-66
2022/07/01 02:32:34;;;;;;;6.88;1.08;;;;;;;14.82;100.00;101169.34;2096294;28;25852;-66
2022/07/01 02:33:36;;;;;;;6.15;0.93;;;;;;;14.82;100.00;101168.44;2097287;28;20815;-67
2022/07/01 02:34:38;;;;;;;5.43;0.90;;;;;;;14.80;100.00;101173.88;2096852;28;20974;-66
2022/07/01 02:35:43;;;;;;;6.00;0.93;;;;;;;14.80;100.00;101168.47;2096994;28;20034;-66
2022/07/01 02:36:49;;;;;;;9.30;1.40;;;;;;;14.78;100.00;101178.44;2097079;28;20087;-66
2022/07/01 02:37:51;;;;;;;8.07;0.93;;;;;;;14.80;100.00;101170.31;2096954;28;29020;-66
2022/07/01 02:38:53;;;;;;;6.22;0.80;;;;;;;14.82;100.00;101172.03;2096832;28;28028;-66
2022/07/01 02:39:54;;;;;;;6.55;0.73;;;;;;;14.80;100.00;101157.69;2096887;28;26457;-66
2022/07/01 02:40:56;;;;;;;5.93;0.70;;;;;;;14.80;100.00;101157.69;2096617;28;38208;-67
2022/07/01 02:43:18;;;;;;;6.38;1.10;;;;;;;14.79;100.00;101152.41;2096371;28;25927;-67
2022/07/01 02:44:20;;;;;;;8.20;1.33;;;;;;;14.78;100.00;101151.50;2095946;28;36676;-67
2022/07/01 02:45:24;;;;;;;6.22;0.70;;;;;;;14.81;100.00;101153.22;2095738;28;27153;-67
2022/07/01 02:46:26;;;;;;;5.72;0.50;;;;;;;14.80;100.00;101162.22;2095902;28;29236;-67
2022/07/01 02:47:41;;;;;;;4.47;0.90;;;;;;;14.80;100.00;101156.84;2088074;28;20875;-67
2022/07/01 02:48:43;;;;;;;3.47;0.80;;;;;;;14.79;100.00;101163.19;2089311;28;35219;-67
2022/07/01 02:49:45;;;;;;;2.85;0.80;;;;;;;14.78;100.00;101154.19;2096180;28;24661;-67
2022/07/01 02:50:47;;;;;;;6.28;0.60;;;;;;;14.79;100.00;101155.97;2096637;28;20839;-66
2022/07/01 02:51:49;;;;;;;4.40;0.50;;;;;;;14.79;100.00;101161.34;2096984;28;24969;-67
2022/07/01 02:52:50;;;;;;;8.00;0.73;;;;;;;14.81;100.00;101164.88;2096892;28;24377;-68
2022/07/01 02:53:54;;;;;;;4.05;0.82;;;;;;;14.79;100.00;101165.88;2096939;28;20045;-67
2022/07/01 02:54:56;;;;;;;4.68;0.77;;;;;;;14.80;100.00;101173.88;2095536;28;31837;-67
2022/07/01 02:55:58;;;;;;;4.88;0.70;;;;;;;14.79;100.00;101171.25;2096072;28;20045;-66
2022/07/01 02:57:02;;;;;;;3.00;0.68;;;;;;;14.80;100.00;101176.56;2096134;28;28629;-59
2022/07/01 02:58:04;;;;;;;6.40;0.90;;;;;;;14.80;100.00;101173.88;2095831;28;27773;-66
2022/07/01 02:59:06;;;;;;;4.82;0.77;;;;;;;14.78;100.00;101170.38;2094911;28;27021;-68
2022/07/01 03:00:13;;;;;;;6.10;0.80;;;;;;;14.79;100.00;101166.75;2087890;28;20038;-68
2022/07/01 03:01:15;;;;;;;4.25;0.60;;;;;;;14.78;100.00;101178.44;2096527;28;20155;-68
2022/07/01 03:02:19;;;;;;;9.35;0.77;;;;;;;14.77;100.00;101176.72;2096596;28;21607;-68
2022/07/01 03:03:23;;;;;;;2.75;0.60;;;;;;;14.77;100.00;101183.88;2096221;28;30795;-68
2022/07/01 03:04:25;;;;;;;2.38;0.60;;;;;;;14.75;100.00;101183.97;2096019;28;27568;-68
2022/07/01 03:05:27;;;;;;;2.60;0.77;;;;;;;14.75;100.00;101183.06;2096108;28;33110;-68
2022/07/01 03:06:28;;;;;;;5.50;0.60;;;;;;;14.75;100.00;101192.06;2096223;28;20037;-68
2022/07/01 03:07:31;;;;;;;3.05;0.55;;;;;;;14.75;100.00;101192.06;2095606;28;32448;-68
2022/07/01 03:08:32;;;;;;;6.97;0.68;;;;;;;14.75;100.00;101200.16;2096657;28;20913;-66
2022/07/01 03:09:34;;;;;;;5.97;0.68;;;;;;;14.76;100.00;101204.59;2096837;28;20811;-68
2022/07/01 03:10:36;;;;;;;5.55;0.98;;;;;;;14.76;100.00;101209.09;2095865;28;28301;-67
2022/07/01 03:11:38;;;;;;;7.03;0.73;;;;;;;14.77;100.00;101206.34;2096002;28;21734;-67
2022/07/01 03:12:40;;;;;;;3.92;0.50;;;;;;;14.77;100.00;101200.97;2096504;28;31491;-68
2022/07/01 03:13:46;;;;;;;3.03;0.55;;;;;;;14.76;100.00;101198.31;2096324;28;22690;-67
2022/07/01 03:14:51;;;;;;;3.72;0.57;;;;;;;14.75;100.00;101207.34;2096881;28;20111;-67
2022/07/01 03:15:53;;;;;;;5.28;0.50;;;;;;;14.75;100.00;101197.44;2096254;28;27325;-68
2022/07/01 03:16:57;;;;;;;1.48;0.50;;;;;;;14.76;100.00;101198.31;2096572;28;24905;-68
2022/07/01 03:17:59;;;;;;;2.10;0.50;;;;;;;14.76;100.00;101196.50;2096469;28;22028;-68
2022/07/01 03:19:01;;;;;;;1.70;0.40;;;;;;;14.78;100.00;101204.53;2096609;28;27780;-68
2022/07/01 03:20:05;;;;;;;1.95;0.50;;;;;;;14.77;100.00;101202.75;2095998;28;27960;-68
2022/07/01 03:21:07;;;;;;;1.77;0.50;;;;;;;14.74;100.00;101198.38;2096182;28;20996;-68
2022/07/01 03:22:10;;;;;;;2.17;0.47;;;;;;;14.75;100.00;101194.75;2096611;28;23830;-68
2022/07/01 03:23:12;;;;;;;4.82;0.50;;;;;;;14.74;100.00;101195.69;2096733;28;20891;-68
2022/07/01 03:24:13;;;;;;;2.65;0.70;;;;;;;14.74;100.00;101198.38;2096620;28;21337;-68
2022/07/01 03:25:20;;;;;;;4.32;0.70;;;;;;;14.75;100.00;101199.25;2097445;28;20821;-68
2022/07/01 03:26:22;;;;;;;4.78;0.60;;;;;;;14.74;100.00;101198.38;2095899;28;40149;-68
2022/07/01 03:27:26;;;;;;;5.65;0.57;;;;;;;14.75;100.00;101208.22;2096711;28;20032;-68
2022/07/01 03:28:28;;;;;;;2.30;0.57;;;;;;;14.76;100.00;101211.81;2095608;28;20158;-68
2022/07/01 03:29:30;;;;;;;2.67;0.50;;;;;;;14.75;100.00;101216.31;2096078;28;21467;-68
2022/07/01 03:30:31;;;;;;;2.03;0.40;;;;;;;14.75;100.00;101219.00;2096390;28;23407;-68
2022/07/01 03:31:34;;;;;;;3.08;0.65;;;;;;;14.75;100.00;101224.41;2095950;28;38755;-68
2022/07/01 03:32:36;;;;;;;2.25;0.40;;;;;;;14.76;100.00;101228.84;2096382;28;22970;-68
2022/07/01 03:33:40;;;;;;;5.60;0.55;;;;;;;14.74;100.00;101233.41;2095910;28;24882;-68
2022/07/01 03:34:45;;;;;;;3.00;0.70;;;;;;;14.75;100.00;101232.50;2095722;28;29157;-68
2022/07/01 03:35:46;;;;;;;4.15;0.55;;;;;;;14.75;100.00;101226.19;2095642;28;29795;-68
2022/07/01 03:36:48;;;;;;;2.80;0.40;;;;;;;14.75;100.00;101231.59;2095470;28;21639;-68
2022/07/01 03:37:50;;;;;;;3.30;0.70;;;;;;;14.75;100.00;101234.28;2104417;28;20033;-68
2022/07/01 03:38:52;;;;;;;3.05;0.50;;;;;;;14.76;100.00;101241.44;2103623;28;22756;-68
2022/07/01 03:39:54;;;;;;;2.75;0.90;;;;;;;14.78;100.00;101247.66;2096369;28;26006;-68
2022/07/01 03:40:56;;;;;;;2.92;0.50;;;;;;;14.78;100.00;101253.06;2096606;28;21381;-66
2022/07/01 03:41:58;;;;;;;1.55;0.32;;;;;;;14.77;100.00;101253.97;2096652;28;20627;-66
2022/07/01 03:43:00;;;;;;;2.30;0.50;;;;;;;14.77;100.00;101254.88;2096079;28;20193;-67
2022/07/01 03:44:02;;;;;;;2.75;0.50;;;;;;;14.79;100.00;101255.69;2095678;28;27283;-66
2022/07/01 03:45:07;;;;;;;5.85;0.60;;;;;;;14.81;100.00;101261.91;2096665;28;20045;-67
2022/07/01 03:46:09;;;;;;;6.60;0.75;;;;;;;14.78;100.00;101258.44;2096525;28;23326;-67
2022/07/01 03:47:14;;;;;;;2.70;0.60;;;;;;;14.77;100.00;101249.50;2096457;28;24276;-67
2022/07/01 03:48:16;;;;;;;1.52;0.60;;;;;;;14.78;100.00;101256.63;2096928;28;20123;-67
2022/07/01 03:49:18;;;;;;;4.10;0.60;;;;;;;14.78;100.00;101261.13;2095588;28;29620;-66
2022/07/01 03:50:25;;;;;;;3.53;0.60;;;;;;;14.79;100.00;101263.78;2095979;28;22445;-67
2022/07/01 03:51:27;;;;;;;2.65;0.40;;;;;;;14.80;100.00;101265.53;2095206;28;20935;-66
2022/07/01 03:52:29;;;;;;;1.73;0.43;;;;;;;14.82;100.00;101262.78;2096161;28;29939;-66
2022/07/01 03:54:53;;;;;;;2.38;0.40;;;;;;;14.82;99.96;101268.19;2096134;28;29314;-67
2022/07/01 03:55:55;;;;;;;3.40;0.57;;;;;;;14.84;100.00;101269.00;2096170;28;30839;-67
2022/07/01 03:57:00;;;;;;;3.55;0.80;;;;;;;14.83;100.00;101265.44;2095984;28;31759;-68
2022/07/01 03:58:02;;;;;;;2.03;0.47;;;;;;;14.83;100.00;101267.25;2096966;28;23719;-68
2022/07/01 03:59:04;;;;;;;2.97;0.52;;;;;;;14.84;100.00;101269.91;2095806;28;22896;-68
2022/07/01 04:00:10;;;;;;;4.50;0.60;;;;;;;14.85;100.00;101274.34;2095600;28;28533;-68
2022/07/01 04:01:14;;;;;;;5.88;0.63;;;;;;;14.86;100.00;101272.53;2096431;28;20095;-68
2022/07/01 04:02:15;;;;;;;3.38;0.50;;;;;;;14.89;100.00;101273.31;2096624;28;20183;-68
2022/07/01 04:03:20;;;;;;;4.85;0.60;;;;;;;14.89;100.00;101276.00;2095534;28;20072;-68
2022/07/01 04:04:23;;;;;;;1.85;0.60;;;;;;;14.89;100.00;101270.63;2095754;28;26174;-68
2022/07/01 04:05:25;;;;;;;3.30;0.50;;;;;;;14.89;100.00;101283.19;2096171;28;27959;-67
2022/07/01 04:06:27;;;;;;;3.78;0.60;;;;;;;14.89;100.00;101281.41;2095783;28;22309;-66
2022/07/01 04:07:29;;;;;;;3.38;0.50;;;;;;;14.89;100.00;101284.09;2096441;28;20122;-65
2022/07/01 04:08:31;;;;;;;4.60;0.70;;;;;;;14.91;100.00;101284.03;2096044;28;30032;-68
2022/07/01 04:09:33;;;;;;;2.53;0.73;;;;;;;14.89;100.00;101280.50;2095938;28;23099;-68
2022/07/01 04:10:35;;;;;;;2.97;0.70;;;;;;;14.88;100.00;101294.94;2096489;28;21164;-68
2022/07/01 04:11:37;;;;;;;1.52;0.50;;;;;;;14.87;100.00;101295.84;2095020;28;31591;-68
2022/07/01 04:12:39;;;;;;;2.45;0.57;;;;;;;14.87;100.00;101295.84;2095157;28;37037;-68
2022/07/01 04:13:50;;;;;;;5.03;0.90;;;;;;;14.86;99.76;101303.06;2095355;28;35812;-68
2022/07/01 04:14:51;;;;;;;2.25;0.60;;;;;;;14.85;100.00;101309.38;2096393;28;21657;-68
2022/07/01 04:15:57;;;;;;;4.28;0.70;;;;;;;14.84;100.00;101310.34;2095215;28;32636;-68
2022/07/01 04:16:59;;;;;;;1.92;0.60;;;;;;;14.85;100.00;101314.78;2096065;28;27439;-68
2022/07/01 04:18:01;;;;;;;3.80;0.80;;;;;;;14.84;100.00;101315.72;2096887;28;20076;-68
2022/07/01 04:19:03;;;;;;;3.78;0.70;;;;;;;14.85;100.00;101313.91;2095581;28;27968;-68
2022/07/01 04:20:09;;;;;;;1.48;0.60;;;;;;;14.84;100.00;101310.34;2095742;28;39441;-68
2022/07/01 04:22:38;;;;;;;2.95;0.68;;;;;;;14.84;100.00;101314.81;2095516;28;30568;-68
2022/07/01 04:23:39;;;;;;;2.15;0.70;;;;;;;14.84;100.00;101309.44;2096027;28;22767;-68
2022/07/01 04:24:41;;;;;;;2.38;0.70;;;;;;;14.81;100.00;101321.22;2095902;28;25813;-68
2022/07/01 04:25:44;;;;;;;2.63;0.60;;;;;;;14.80;100.00;101319.44;2096470;28;20041;-68
2022/07/01 04:26:51;;;;;;;2.03;0.60;;;;;;;14.82;100.00;101322.09;2096568;28;20033;-68
2022/07/01 04:28:02;;;;;;;1.50;0.68;;;;;;;14.80;99.97;101327.53;2095924;28;21063;-68
2022/07/01 04:29:04;;;;;;;2.83;0.77;;;;;;;14.78;99.92;101328.53;2096124;28;23974;-68
2022/07/01 04:30:10;;;;;;;1.58;0.60;;;;;;;14.77;99.89;101330.34;2096196;28;28664;-68
2022/07/01 04:31:12;;;;;;;2.92;0.50;;;;;;;14.76;100.00;101339.34;2096114;28;22159;-68
2022/07/01 04:32:14;;;;;;;2.25;0.55;;;;;;;14.77;99.83;101338.44;2096171;28;23391;-68
2022/07/01 04:33:16;;;;;;;3.10;0.98;;;;;;;14.76;99.98;101338.50;2095750;28;34732;-68
2022/07/01 04:34:18;;;;;;;2.70;0.70;;;;;;;14.76;99.99;101333.09;2096464;28;24143;-68
2022/07/01 04:35:19;;;;;;;2.35;0.68;;;;;;;14.77;100.00;101329.44;2096005;28;30590;-68
2022/07/01 04:36:21;;;;;;;3.08;0.80;;;;;;;14.75;100.00;101331.31;2095671;28;27049;-68
2022/07/01 04:37:23;;;;;;;5.25;0.60;;;;;;;14.74;100.00;101325.06;2095731;28;22675;-68
2022/07/01 04:38:25;;;;;;;6.38;0.55;;;;;;;14.75;100.00;101329.53;2095884;28;35384;-68
2022/07/01 04:39:26;;;;;;;1.35;0.40;;;;;;;14.76;99.84;101333.09;2095789;28;24940;-67
2022/07/01 04:40:30;;;;;;;3.63;0.65;;;;;;;14.74;100.00;101327.75;2096302;28;20936;-68
2022/07/01 04:42:53;;;;;;;3.03;0.85;;;;;;;14.78;100.00;101333.91;2096368;28;24914;-68
2022/07/01 04:43:54;;;;;;;3.45;0.73;;;;;;;14.78;100.00;101337.50;2096259;28;20221;-67
2022/07/01 04:44:56;;;;;;;2.25;0.65;;;;;;;14.76;100.00;101333.09;2096261;28;22767;-68
2022/07/01 04:45:58;;;;;;;1.70;0.85;;;;;;;14.75;100.00;101343.00;2095875;28;26809;-67
2022/07/01 04:47:02;;;;;;;2.97;0.82;;;;;;;14.77;100.00;101335.75;2095944;28;28986;-67
2022/07/01 04:48:04;;;;;;;2.35;0.80;;;;;;;14.76;100.00;101335.78;2095897;28;31774;-67
2022/07/01 04:49:08;;;;;;;2.13;0.55;;;;;;;14.78;100.00;101334.78;2096084;28;21174;-67
2022/07/01 04:50:10;;;;;;;2.10;0.80;;;;;;;14.79;100.00;101333.88;2095799;28;28806;-67
2022/07/01 04:51:13;;;;;;;2.83;1.17;;;;;;;14.80;100.00;101338.31;2095841;28;20925;-67
2022/07/01 04:52:15;;;;;;;2.17;0.90;;;;;;;14.81;99.78;101329.31;2095552;28;22046;-67